Time;durP1;ratioP1;P1;durP2;ratioP2;P2;SDS_P1;SDS_P2;PMS_P1;PMS_P2;Temp;Humidity;BMP_temperature;BMP_pressure;BME280_temperature;BME280_humidity;BME280_pressure;Samples;Min_cycle;Max_cycle;Signal;HPM_P1;HPM_P2
2023/10/10 00:00:23;;;;;;;16.98;10.07;;;;;;;;;;5045041;28;20031;-67
2023/10/10 00:02:50;;;;;;;21.08;9.95;;;;;;;;;;5046594;28;20082;-67
2023/10/10 00:05:18;;;;;;;19.83;9.85;;;;;;;;;;5043576;28;20100;-68
2023/10/10 00:07:43;;;;;;;20.00;9.05;;;;;;;;;;5044257;28;20013;-66
2023/10/10 00:10:13;;;;;;;18.65;8.45;;;;;;;;;;5045683;28;20060;-65
2023/10/10 00:12:39;;;;;;;17.35;9.05;;;;;;;;;;5045590;28;20020;-65
2023/10/10 00:15:05;;;;;;;15.52;8.82;;;;;;;;;;5045173;28;20064;-67
2023/10/10 00:17:34;;;;;;;13.90;7.63;;;;;;;;;;5045474;28;20059;-66
2023/10/10 00:20:05;;;;;;;;;;;;;;;;;;5045365;28;20306;-66
2023/10/10 00:22:35;;;;;;;15.75;7.75;;;;;;;;;;5041142;28;20367;-66
2023/10/10 00:25:04;;;;;;;12.23;7.05;;;;;;;;;;5045190;28;20020;-66
2023/10/10 00:27:31;;;;;;;16.17;6.53;;;;;;;;;;5045569;28;20037;-66
2023/10/10 00:30:03;;;;;;;12.07;6.05;;;;;;;;;;5045566;28;20476;-66
2023/10/10 00:32:35;;;;;;;12.90;5.57;;;;;;;;;;5053072;28;20037;-66
2023/10/10 00:35:05;;;;;;;15.07;5.50;;;;;;;;;;5027004;28;20017;-67
2023/10/10 00:37:34;;;;;;;9.23;4.70;;;;;;;;;;5036542;28;20017;-67
2023/10/10 00:40:03;;;;;;;;;;;;;;;;;;5045666;28;20262;-64
2023/10/10 00:42:40;;;;;;;9.55;4.57;;;;;;;;;;5046558;28;20347;-66
2023/10/10 00:45:12;;;;;;;8.75;4.15;;;;;;;;;;5048101;28;20468;-66
2023/10/10 00:47:42;;;;;;;11.77;4.68;;;;;;;;;;5042038;28;20104;-67
2023/10/10 00:50:14;;;;;;;12.98;4.35;;;;;;;;;;5031552;28;20039;-65
2023/10/10 00:52:41;;;;;;;12.32;4.85;;;;;;;;;;5048978;28;20456;-66
2023/10/10 00:55:06;;;;;;;13.45;4.00;;;;;;;;;;5048157;28;20023;-66
2023/10/10 00:57:35;;;;;;;12.80;4.47;;;;;;;;;;5048998;28;20096;-64
2023/10/10 01:00:00;;;;;;;;;;;;;;;;;;5050896;28;20031;-63
2023/10/10 01:02:26;;;;;;;9.85;4.10;;;;;;;;;;5048137;28;19913;-66
2023/10/10 01:07:18;;;;;;;8.45;4.35;;;;;;;;;;5049703;28;20024;-65
2023/10/10 01:09:52;;;;;;;9.02;3.90;;;;;;;;;;5048469;28;20519;-63
2023/10/10 01:12:17;;;;;;;13.35;4.00;;;;;;;;;;5048576;28;20353;-67
2023/10/10 01:14:43;;;;;;;9.35;4.97;;;;;;;;;;5047850;28;20470;-64
2023/10/10 01:17:12;;;;;;;11.73;4.38;;;;;;;;;;5048393;28;20170;-66
2023/10/10 01:19:37;;;;;;;8.43;3.85;;;;;;;;;;5030965;28;20531;-67
2023/10/10 01:22:12;;;;;;;8.75;3.42;;;;;;;;;;5049607;28;20052;-67
2023/10/10 01:24:40;;;;;;;9.95;4.32;;;;;;;;;;5022624;28;20024;-67
2023/10/10 01:27:16;;;;;;;11.70;3.92;;;;;;;;;;5048782;28;20017;-68
2023/10/10 01:29:49;;;;;;;9.82;4.43;;;;;;;;;;5041432;28;20017;-68
2023/10/10 01:32:16;;;;;;;7.47;3.80;;;;;;;;;;5048136;28;20476;-68
2023/10/10 01:34:44;;;;;;;7.18;3.60;;;;;;;;;;5047585;28;20095;-69
2023/10/10 01:37:23;;;;;;;19.90;4.45;;;;;;;;;;5048149;28;20017;-68
2023/10/10 01:40:11;;;;;;;8.95;3.60;;;;;;;;;;5048279;28;20036;-68
2023/10/10 01:42:43;;;;;;;15.60;3.95;;;;;;;;;;5041420;28;20021;-66
2023/10/10 01:45:08;;;;;;;9.90;3.60;;;;;;;;;;5049177;28;20025;-67
2023/10/10 01:47:34;;;;;;;16.77;3.90;;;;;;;;;;5048688;28;20135;-67
2023/10/10 01:50:01;;;;;;;9.82;3.83;;;;;;;;;;5048185;28;20070;-67
2023/10/10 01:52:27;;;;;;;11.45;3.88;;;;;;;;;;5054154;28;20070;-66
2023/10/10 01:54:55;;;;;;;9.82;3.83;;;;;;;;;;5046675;28;20032;-64
2023/10/10 01:57:24;;;;;;;21.10;4.73;;;;;;;;;;5055650;28;20020;-69
2023/10/10 01:59:51;;;;;;;8.95;4.22;;;;;;;;;;5047804;28;20500;-67
2023/10/10 02:02:17;;;;;;;10.05;3.90;;;;;;;;;;5029434;28;20036;-67
2023/10/10 02:04:43;;;;;;;11.65;4.55;;;;;;;;;;5046866;28;20012;-64
2023/10/10 02:07:23;;;;;;;9.52;4.18;;;;;;;;;;5047615;28;20036;-67
2023/10/10 02:10:03;;;;;;;15.77;4.53;;;;;;;;;;5047793;28;20088;-67
2023/10/10 02:12:33;;;;;;;10.75;4.15;;;;;;;;;;5047670;28;20044;-66
2023/10/10 02:14:59;;;;;;;11.82;4.13;;;;;;;;;;5046765;28;20020;-65
2023/10/10 02:17:26;;;;;;;18.38;4.40;;;;;;;;;;5041498;28;20364;-66
2023/10/10 02:20:18;;;;;;;13.52;5.10;;;;;;;;;;5053192;28;20021;-66
2023/10/10 02:22:51;;;;;;;14.80;4.95;;;;;;;;;;5045838;28;20021;-66
2023/10/10 02:28:00;;;;;;;7.47;4.30;;;;;;;;;;5045219;28;20033;-66
2023/10/10 02:30:34;;;;;;;13.20;4.05;;;;;;;;;;5047046;28;20020;-67
2023/10/10 02:33:22;;;;;;;13.13;4.75;;;;;;;;;;5047932;28;20550;-67
2023/10/10 02:35:54;;;;;;;11.02;4.80;;;;;;;;;;5046304;28;20384;-64
2023/10/10 02:38:31;;;;;;;14.65;5.13;;;;;;;;;;5045731;28;20028;-68
2023/10/10 02:41:13;;;;;;;13.13;4.53;;;;;;;;;;5042040;28;20017;-65
2023/10/10 02:46:34;;;;;;;17.92;5.60;;;;;;;;;;5048460;28;20024;-66
2023/10/10 02:49:02;;;;;;;11.23;4.90;;;;;;;;;;5042340;28;20028;-65
2023/10/10 02:51:27;;;;;;;16.27;5.57;;;;;;;;;;5047225;28;20051;-65
2023/10/10 02:53:53;;;;;;;12.60;6.07;;;;;;;;;;5051585;28;20092;-66
2023/10/10 02:56:19;;;;;;;12.32;5.60;;;;;;;;;;5045735;28;20027;-65
2023/10/10 02:58:47;;;;;;;14.18;5.18;;;;;;;;;;5046525;28;20056;-66
2023/10/10 03:01:27;;;;;;;12.85;5.30;;;;;;;;;;5046273;28;20016;-66
2023/10/10 03:03:54;;;;;;;13.65;5.45;;;;;;;;;;5046195;28;20024;-68
2023/10/10 03:06:28;;;;;;;10.77;5.07;;;;;;;;;;5044026;28;20040;-68
2023/10/10 03:09:06;;;;;;;13.57;5.60;;;;;;;;;;5046237;28;20039;-67
2023/10/10 03:11:52;;;;;;;14.70;5.55;;;;;;;;;;5045706;28;20057;-63
2023/10/10 03:14:25;;;;;;;11.07;5.22;;;;;;;;;;5045954;28;20130;-66
2023/10/10 03:17:05;;;;;;;11.27;5.00;;;;;;;;;;5041009;28;20143;-66
2023/10/10 03:19:37;;;;;;;11.23;5.40;;;;;;;;;;5052942;28;20037;-67
2023/10/10 03:25:20;;;;;;;11.00;4.88;;;;;;;;;;4944415;29;20027;-65
2023/10/10 03:27:53;;;;;;;18.70;5.68;;;;;;;;;;5036946;28;20033;-67
2023/10/10 03:30:34;;;;;;;16.27;6.05;;;;;;;;;;5050054;28;20036;-66
2023/10/10 03:33:08;;;;;;;17.10;6.00;;;;;;;;;;5047131;28;20477;-65
2023/10/10 03:35:51;;;;;;;14.48;5.22;;;;;;;;;;5028807;28;20016;-67
2023/10/10 03:41:25;;;;;;;10.50;5.28;;;;;;;;;;5043125;28;20032;-66
2023/10/10 05:25:07;;;;;;;7.93;3.25;;;;;;;;;;5048830;28;20059;-68
2023/10/10 05:27:32;;;;;;;10.15;3.63;;;;;;;;;;5047683;28;20052;-67
2023/10/10 05:29:59;;;;;;;10.60;3.20;;;;;;;;;;5050683;28;20031;-65
2023/10/10 05:32:27;;;;;;;10.63;3.30;;;;;;;;;;5045454;28;20009;-67
2023/10/10 05:34:52;;;;;;;9.43;3.00;;;;;;;;;;5051776;28;20048;-68
2023/10/10 05:37:18;;;;;;;9.50;3.17;;;;;;;;;;5047963;28;20049;-66
2023/10/10 05:39:46;;;;;;;8.32;3.40;;;;;;;;;;5052941;28;20025;-67
2023/10/10 05:42:13;;;;;;;8.90;2.42;;;;;;;;;;5052338;28;20021;-64
2023/10/10 05:44:38;;;;;;;5.68;2.42;;;;;;;;;;5045163;28;20112;-65
2023/10/10 05:47:06;;;;;;;12.45;3.00;;;;;;;;;;5042959;28;20044;-67
2023/10/10 05:49:32;;;;;;;6.90;2.65;;;;;;;;;;5049469;28;20029;-65
2023/10/10 05:51:58;;;;;;;10.90;3.17;;;;;;;;;;5048779;28;20025;-67
2023/10/10 05:54:23;;;;;;;6.10;2.50;;;;;;;;;;5048043;28;20016;-66
2023/10/10 05:56:49;;;;;;;4.97;2.38;;;;;;;;;;5047782;28;20173;-65
2023/10/10 05:59:14;;;;;;;5.85;2.97;;;;;;;;;;5047776;28;20017;-69
2023/10/10 06:01:39;;;;;;;12.38;3.17;;;;;;;;;;5048491;28;20013;-68
2023/10/10 06:04:07;;;;;;;10.85;3.35;;;;;;;;;;5047740;28;20024;-67
2023/10/10 06:06:32;;;;;;;7.35;2.47;;;;;;;;;;5047783;28;20067;-68
2023/10/10 06:09:00;;;;;;;9.88;2.78;;;;;;;;;;5048100;28;20028;-67
2023/10/10 06:11:27;;;;;;;9.00;2.28;;;;;;;;;;5047843;28;20052;-68
2023/10/10 06:13:53;;;;;;;10.98;2.70;;;;;;;;;;5048727;28;20407;-67
2023/10/10 06:16:18;;;;;;;10.73;3.72;;;;;;;;;;5028454;28;20021;-68
2023/10/10 06:18:46;;;;;;;4.82;2.13;;;;;;;;;;5048668;28;20023;-66
2023/10/10 06:21:11;;;;;;;6.78;1.90;;;;;;;;;;5051375;28;20086;-66
2023/10/10 06:23:37;;;;;;;8.77;2.72;;;;;;;;;;5052542;28;20112;-67
2023/10/10 06:26:04;;;;;;;6.20;2.10;;;;;;;;;;5046924;28;20024;-65
2023/10/10 06:28:35;;;;;;;6.07;2.88;;;;;;;;;;5047303;28;20021;-64
2023/10/10 06:31:01;;;;;;;9.65;2.50;;;;;;;;;;5045546;28;20029;-68
2023/10/10 06:33:29;;;;;;;7.47;2.45;;;;;;;;;;5045483;28;20024;-67
2023/10/10 06:41:38;;;;;;;4.47;1.80;;;;;;;;;;5034928;28;20076;-68
2023/10/10 06:46:48;;;;;;;11.00;2.28;;;;;;;;;;5041173;28;20012;-67
2023/10/10 06:49:13;;;;;;;5.13;1.88;;;;;;;;;;5053235;28;20013;-68
2023/10/10 06:51:41;;;;;;;6.18;2.17;;;;;;;;;;5043592;28;20085;-65
2023/10/10 06:54:19;;;;;;;7.60;2.00;;;;;;;;;;5042343;28;20017;-67
2023/10/10 06:57:04;;;;;;;4.78;2.30;;;;;;;;;;5026566;28;20032;-68
2023/10/10 06:59:29;;;;;;;7.45;1.88;;;;;;;;;;5021763;28;20029;-66
2023/10/10 07:01:59;;;;;;;4.20;1.83;;;;;;;;;;5026766;28;20400;-67
2023/10/10 07:04:27;;;;;;;6.63;2.58;;;;;;;;;;5046151;28;20032;-67
2023/10/10 07:06:54;;;;;;;9.10;2.05;;;;;;;;;;5046560;28;20464;-67
2023/10/10 07:09:28;;;;;;;6.45;1.95;;;;;;;;;;5048552;28;20035;-69
2023/10/10 07:11:56;;;;;;;9.30;2.30;;;;;;;;;;5047923;28;20136;-66
2023/10/10 07:14:24;;;;;;;9.57;2.00;;;;;;;;;;5046658;28;20365;-66
2023/10/10 07:16:54;;;;;;;5.47;1.98;;;;;;;;;;5046066;28;20520;-68
2023/10/10 07:19:19;;;;;;;3.92;1.65;;;;;;;;;;5046272;28;20017;-65
2023/10/10 07:24:15;;;;;;;4.97;1.52;;;;;;;;;;5006968;28;20061;-65
2023/10/10 07:26:41;;;;;;;6.20;1.65;;;;;;;;;;5007938;28;20064;-68
2023/10/10 07:32:16;;;;;;;8.93;2.30;;;;;;;;;;4909098;29;20111;-66
2023/10/10 07:34:42;;;;;;;4.85;1.60;;;;;;;;;;4989999;28;20107;-66
2023/10/10 07:37:08;;;;;;;9.25;1.80;;;;;;;;;;5009571;28;20117;-66
2023/10/10 07:39:36;;;;;;;5.45;2.45;;;;;;;;;;4990888;28;20577;-65
2023/10/10 07:42:01;;;;;;;4.65;1.63;;;;;;;;;;5013252;28;20014;-67
2023/10/10 07:44:30;;;;;;;5.38;1.67;;;;;;;;;;5007703;28;20024;-67
2023/10/10 07:49:35;;;;;;;7.70;2.33;;;;;;;;;;5005459;28;20025;-66
2023/10/10 07:52:04;;;;;;;6.70;1.83;;;;;;;;;;5010391;28;20377;-66
2023/10/10 07:54:31;;;;;;;7.93;2.17;;;;;;;;;;4992958;28;20157;-66
2023/10/10 07:56:56;;;;;;;4.00;1.83;;;;;;;;;;5012002;28;20112;-68
2023/10/10 07:59:21;;;;;;;7.85;1.73;;;;;;;;;;4994731;28;20479;-65
2023/10/10 08:01:47;;;;;;;6.38;2.15;;;;;;;;;;5019182;28;20101;-66
2023/10/10 08:04:15;;;;;;;10.23;2.60;;;;;;;;;;5011085;28;20046;-67
2023/10/10 08:06:44;;;;;;;8.80;2.80;;;;;;;;;;5012113;28;20018;-66
2023/10/10 08:11:41;;;;;;;6.63;2.70;;;;;;;;;;4998927;28;20030;-67
2023/10/10 08:14:07;;;;;;;10.52;2.83;;;;;;;;;;5001156;28;20030;-67
2023/10/10 08:16:35;;;;;;;6.63;2.35;;;;;;;;;;4998693;28;20121;-67
2023/10/10 08:19:15;;;;;;;6.72;3.10;;;;;;;;;;5000837;28;20018;-66
2023/10/10 08:21:48;;;;;;;3.78;1.92;;;;;;;;;;4999449;28;20704;-68
2023/10/10 08:24:14;;;;;;;9.93;2.55;;;;;;;;;;5000692;28;20658;-67
2023/10/10 08:26:40;;;;;;;8.50;2.10;;;;;;;;;;4999074;28;20021;-67
2023/10/10 08:29:09;;;;;;;8.70;3.60;;;;;;;;;;4998671;28;20030;-67
2023/10/10 08:31:36;;;;;;;6.53;2.50;;;;;;;;;;4996616;28;20029;-64
2023/10/10 08:34:01;;;;;;;4.93;2.45;;;;;;;;;;4999963;28;20387;-67
2023/10/10 08:36:27;;;;;;;7.97;2.90;;;;;;;;;;4999018;28;20512;-64
2023/10/10 08:38:52;;;;;;;10.32;2.88;;;;;;;;;;4995680;28;20034;-65
2023/10/10 08:41:21;;;;;;;9.23;3.60;;;;;;;;;;4998577;28;20026;-67
2023/10/10 08:43:53;;;;;;;9.23;3.88;;;;;;;;;;4998937;28;21326;-67
2023/10/10 08:46:21;;;;;;;9.43;4.13;;;;;;;;;;4995376;28;20042;-63
2023/10/10 08:48:47;;;;;;;13.43;4.43;;;;;;;;;;4994063;28;20026;-65
2023/10/10 08:51:12;;;;;;;11.32;4.75;;;;;;;;;;4992192;28;20498;-63
2023/10/10 08:53:38;;;;;;;16.42;6.20;;;;;;;;;;4996768;28;20037;-68
2023/10/10 08:56:03;;;;;;;12.40;4.70;;;;;;;;;;4994762;28;20026;-66
2023/10/10 08:58:31;;;;;;;13.63;6.85;;;;;;;;;;4981617;28;20026;-67
2023/10/10 09:01:05;;;;;;;16.57;7.00;;;;;;;;;;4998509;28;20022;-63
2023/10/10 09:03:34;;;;;;;11.75;7.45;;;;;;;;;;4997697;28;20092;-66
2023/10/10 09:05:59;;;;;;;26.17;8.77;;;;;;;;;;4998204;28;20029;-67
2023/10/10 09:08:27;;;;;;;12.68;7.78;;;;;;;;;;5000098;28;20030;-66
2023/10/10 09:10:56;;;;;;;23.42;9.15;;;;;;;;;;4999546;28;20043;-67
2023/10/10 09:13:21;;;;;;;;;;;;;;;;;;4998059;28;20030;-67
2023/10/10 09:15:55;;;;;;;24.02;9.45;;;;;;;;;;4995482;28;19960;-66
2023/10/10 09:18:28;;;;;;;22.90;12.07;;;;;;;;;;5004123;28;20173;-67
2023/10/10 09:21:10;;;;;;;24.70;11.13;;;;;;;;;;4998318;28;20029;-67
2023/10/10 09:23:42;;;;;;;18.88;11.75;;;;;;;;;;4998398;28;20033;-68
2023/10/10 09:28:55;;;;;;;26.52;13.40;;;;;;;;;;4997592;28;20026;-67
2023/10/10 09:31:20;;;;;;;24.75;12.85;;;;;;;;;;4980124;28;20525;-64
2023/10/10 09:33:47;;;;;;;24.27;12.82;;;;;;;;;;4999841;28;20093;-66
2023/10/10 09:36:15;;;;;;;28.55;12.35;;;;;;;;;;4997924;28;20225;-67
2023/10/10 09:38:45;;;;;;;;;;;;;;;;;;4998916;28;20037;-66
2023/10/10 09:41:14;;;;;;;22.20;11.80;;;;;;;;;;4997056;28;19913;-65
2023/10/10 09:44:00;;;;;;;28.90;13.02;;;;;;;;;;4998529;28;20041;-66
2023/10/10 09:46:36;;;;;;;20.17;11.48;;;;;;;;;;4980401;28;20116;-66
2023/10/10 09:49:51;;;;;;;26.00;13.43;;;;;;;;;;4999113;28;20065;-66
2023/10/10 09:52:50;;;;;;;23.08;12.98;;;;;;;;;;4989747;28;20037;-66
2023/10/10 09:54:44;;;;;;;25.38;13.15;;;;;;;;;;4983948;28;20042;-66
2023/10/10 09:57:10;;;;;;;27.70;13.27;;;;;;;;;;4999134;28;20018;-66
2023/10/10 09:59:37;;;;;;;20.92;12.27;;;;;;;;;;4997129;28;20487;-66
2023/10/10 10:02:05;;;;;;;21.85;11.32;;;;;;;;;;4998125;28;20018;-65
2023/10/10 10:04:38;;;;;;;24.67;12.35;;;;;;;;;;4997107;28;20030;-66
2023/10/10 10:07:13;;;;;;;19.33;10.90;;;;;;;;;;4998789;28;20022;-63
2023/10/10 10:09:51;;;;;;;19.90;11.23;;;;;;;;;;4997073;28;20036;-66
2023/10/10 10:12:30;;;;;;;25.05;11.68;;;;;;;;;;4997660;28;20146;-62
2023/10/10 10:15:01;;;;;;;22.58;11.18;;;;;;;;;;5002400;28;20034;-66
2023/10/10 10:17:47;;;;;;;20.42;11.60;;;;;;;;;;4996259;28;20026;-65
2023/10/10 10:20:21;;;;;;;22.10;11.07;;;;;;;;;;5008074;28;20033;-65
2023/10/10 10:22:59;;;;;;;23.85;10.05;;;;;;;;;;5006454;28;20030;-65
2023/10/10 10:25:32;;;;;;;17.23;9.35;;;;;;;;;;5007435;28;20619;-63
2023/10/10 10:28:14;;;;;;;20.15;9.82;;;;;;;;;;5007295;28;20034;-63
2023/10/10 10:30:53;;;;;;;20.95;10.52;;;;;;;;;;5006442;28;20026;-64
2023/10/10 10:33:19;;;;;;;18.27;11.32;;;;;;;;;;5008511;28;20041;-65
2023/10/10 10:35:48;;;;;;;25.42;11.90;;;;;;;;;;5006511;28;20018;-64
2023/10/10 10:38:17;;;;;;;27.13;14.02;;;;;;;;;;5008664;28;20021;-65
2023/10/10 10:40:45;;;;;;;;;;;;;;;;;;5003110;28;20014;-64
2023/10/10 10:43:14;;;;;;;20.83;11.45;;;;;;;;;;5003297;28;19931;-65
2023/10/10 10:45:45;;;;;;;20.15;9.88;;;;;;;;;;5006195;28;20052;-67
2023/10/10 10:48:29;;;;;;;21.92;10.65;;;;;;;;;;5008523;28;20486;-66
2023/10/10 10:50:59;;;;;;;18.70;10.18;;;;;;;;;;5011249;28;20068;-66
2023/10/10 10:53:50;;;;;;;23.80;10.82;;;;;;;;;;5008228;28;20506;-62
2023/10/10 11:01:26;;;;;;;24.98;9.50;;;;;;;;;;5021509;28;20026;-67
2023/10/10 11:03:52;;;;;;;21.52;9.05;;;;;;;;;;5020424;28;20033;-65
2023/10/10 11:06:20;;;;;;;14.27;6.07;;;;;;;;;;5010767;28;20052;-67
2023/10/10 11:08:52;;;;;;;14.60;5.82;;;;;;;;;;4990983;28;20026;-65
2023/10/10 11:13:54;;;;;;;14.57;5.97;;;;;;;;;;5007902;28;20018;-67
2023/10/10 11:16:23;;;;;;;17.02;7.60;;;;;;;;;;5007179;28;20597;-65
2023/10/10 11:18:57;;;;;;;;;;;;;;;;;;5003086;28;20026;-66
2023/10/10 11:21:27;;;;;;;16.15;7.05;;;;;;;;;;5006968;28;20293;-66
2023/10/10 11:23:52;;;;;;;20.70;6.13;;;;;;;;;;5006439;28;20084;-66
2023/10/10 11:26:19;;;;;;;12.35;5.80;;;;;;;;;;4996424;28;20021;-67
2023/10/10 11:28:47;;;;;;;17.02;6.28;;;;;;;;;;5008177;28;20018;-67
2023/10/10 11:31:14;;;;;;;18.17;6.00;;;;;;;;;;5005361;28;20101;-66
2023/10/10 11:33:48;;;;;;;14.07;6.60;;;;;;;;;;5008094;28;20044;-67
2023/10/10 11:36:26;;;;;;;11.60;5.63;;;;;;;;;;5005321;28;20087;-66
2023/10/10 11:38:56;;;;;;;13.18;6.68;;;;;;;;;;5003087;28;20460;-67
2023/10/10 11:41:28;;;;;;;14.10;6.82;;;;;;;;;;5008063;28;20018;-67
2023/10/10 11:44:03;;;;;;;11.05;6.28;;;;;;;;;;4993129;28;20042;-65
2023/10/10 11:46:29;;;;;;;19.33;7.40;;;;;;;;;;4974147;28;20143;-66
2023/10/10 11:48:55;;;;;;;17.73;6.63;;;;;;;;;;4996169;28;20061;-63
2023/10/10 11:51:32;;;;;;;17.40;6.57;;;;;;;;;;4996110;28;20053;-63
2023/10/10 11:53:58;;;;;;;14.77;6.00;;;;;;;;;;4993844;28;20410;-67
2023/10/10 11:56:25;;;;;;;14.55;7.00;;;;;;;;;;4994153;28;20229;-65
2023/10/10 11:58:52;;;;;;;14.88;7.45;;;;;;;;;;4995976;28;20025;-65
2023/10/10 12:01:47;;;;;;;16.40;6.82;;;;;;;;;;4996863;28;20619;-67
2023/10/10 12:04:07;;;;;;;16.92;8.32;;;;;;;;;;4995265;28;20045;-66
2023/10/10 12:06:36;;;;;;;18.77;7.95;;;;;;;;;;4996214;28;20096;-67
2023/10/10 12:09:01;;;;;;;18.85;9.05;;;;;;;;;;4996859;28;20064;-66
2023/10/10 12:11:26;;;;;;;16.45;7.43;;;;;;;;;;4997190;28;20054;-64
2023/10/10 12:13:52;;;;;;;15.70;7.33;;;;;;;;;;4995071;28;20028;-65
2023/10/10 12:16:17;;;;;;;17.88;7.43;;;;;;;;;;4994967;28;20658;-66
2023/10/10 12:18:44;;;;;;;18.55;7.30;;;;;;;;;;4996917;28;20025;-66
2023/10/10 12:21:10;;;;;;;17.42;8.02;;;;;;;;;;4997513;28;20030;-65
2023/10/10 12:23:35;;;;;;;15.43;7.00;;;;;;;;;;4995902;28;20807;-63
2023/10/10 12:26:01;;;;;;;15.18;8.00;;;;;;;;;;4995059;28;20113;-67
2023/10/10 12:28:26;;;;;;;17.75;7.70;;;;;;;;;;4996199;28;20121;-66
2023/10/10 12:30:52;;;;;;;13.95;7.00;;;;;;;;;;4996386;28;20443;-65
2023/10/10 12:33:19;;;;;;;17.33;8.48;;;;;;;;;;4996866;28;20026;-66
2023/10/10 12:35:48;;;;;;;19.77;7.82;;;;;;;;;;4994021;28;20032;-67
2023/10/10 12:38:20;;;;;;;;;;;;;;;;;;5002786;28;20038;-66
2023/10/10 12:40:46;;;;;;;16.48;8.60;;;;;;;;;;4999803;28;19917;-66
2023/10/10 12:43:11;;;;;;;14.90;8.52;;;;;;;;;;5000019;28;20033;-66
2023/10/10 12:45:39;;;;;;;21.37;9.20;;;;;;;;;;4997085;28;20026;-65
2023/10/10 12:48:13;;;;;;;16.80;8.75;;;;;;;;;;5000664;28;20298;-64
2023/10/10 12:50:39;;;;;;;18.08;8.57;;;;;;;;;;5000401;28;20026;-66
2023/10/10 12:53:07;;;;;;;17.55;9.07;;;;;;;;;;5000406;28;20113;-65
2023/10/10 12:55:34;;;;;;;17.83;8.98;;;;;;;;;;4998241;28;20113;-66
2023/10/10 12:58:04;;;;;;;19.20;9.13;;;;;;;;;;4998739;28;20084;-64
2023/10/10 13:00:33;;;;;;;17.83;9.15;;;;;;;;;;4998781;28;20240;-64
2023/10/10 13:02:58;;;;;;;16.63;8.75;;;;;;;;;;5001758;28;20033;-63
2023/10/10 13:05:27;;;;;;;22.40;8.32;;;;;;;;;;4996938;28;20041;-65
2023/10/10 13:07:54;;;;;;;13.18;8.27;;;;;;;;;;4980410;28;20053;-65
2023/10/10 13:10:26;;;;;;;15.45;8.18;;;;;;;;;;4996138;28;20029;-66
2023/10/10 13:12:51;;;;;;;19.33;8.18;;;;;;;;;;5009514;28;20028;-67
2023/10/10 13:15:27;;;;;;;18.08;8.50;;;;;;;;;;5017986;28;20354;-65
2023/10/10 13:17:53;;;;;;;18.10;9.38;;;;;;;;;;5012625;28;20069;-66
2023/10/10 13:20:19;;;;;;;16.85;8.25;;;;;;;;;;5016299;28;20754;-65
2023/10/10 13:22:48;;;;;;;22.67;10.68;;;;;;;;;;5010006;28;20034;-65
2023/10/10 13:25:14;;;;;;;19.55;10.07;;;;;;;;;;5013410;28;20026;-65
2023/10/10 13:27:39;;;;;;;14.77;8.48;;;;;;;;;;5014324;28;20017;-67
2023/10/10 13:30:05;;;;;;;18.75;9.85;;;;;;;;;;5010786;28;20018;-67
2023/10/10 13:32:30;;;;;;;20.30;9.23;;;;;;;;;;5011333;28;20018;-67
2023/10/10 13:34:55;;;;;;;16.33;7.97;;;;;;;;;;5011535;28;20477;-67
2023/10/10 13:37:22;;;;;;;22.33;9.20;;;;;;;;;;5010409;28;20264;-65
2023/10/10 13:39:48;;;;;;;19.40;9.40;;;;;;;;;;5010031;28;20073;-66
2023/10/10 13:42:17;;;;;;;18.52;8.77;;;;;;;;;;5008458;28;20358;-63
2023/10/10 13:44:42;;;;;;;14.48;7.20;;;;;;;;;;5001428;28;20021;-67
2023/10/10 13:47:08;;;;;;;20.73;8.18;;;;;;;;;;5007999;28;20093;-66
2023/10/10 13:49:34;;;;;;;18.10;8.40;;;;;;;;;;5008122;28;20052;-65
2023/10/10 13:52:04;;;;;;;20.40;8.85;;;;;;;;;;5007537;28;20024;-67
2023/10/10 13:54:29;;;;;;;17.30;8.95;;;;;;;;;;5008454;28;20026;-67
2023/10/10 13:56:54;;;;;;;19.65;9.00;;;;;;;;;;5005450;28;20014;-66
2023/10/10 13:59:20;;;;;;;24.40;8.85;;;;;;;;;;5007678;28;20026;-65
2023/10/10 14:01:47;;;;;;;21.48;8.70;;;;;;;;;;5006230;28;20486;-63
2023/10/10 14:04:23;;;;;;;17.40;7.68;;;;;;;;;;5006424;28;20105;-66
2023/10/10 14:06:48;;;;;;;16.10;7.68;;;;;;;;;;5006518;28;20080;-65
2023/10/10 14:09:21;;;;;;;15.35;8.45;;;;;;;;;;5005057;28;20038;-63
2023/10/10 14:11:47;;;;;;;17.33;8.50;;;;;;;;;;5005311;28;20517;-66
2023/10/10 14:14:12;;;;;;;17.17;7.13;;;;;;;;;;5005667;28;20083;-67
2023/10/10 14:16:38;;;;;;;17.50;8.57;;;;;;;;;;5005245;28;20014;-68
2023/10/10 14:19:04;;;;;;;18.10;7.30;;;;;;;;;;5007479;28;20662;-66
2023/10/10 14:21:29;;;;;;;17.50;7.80;;;;;;;;;;5005515;28;20358;-67
2023/10/10 14:24:08;;;;;;;16.30;7.82;;;;;;;;;;5012273;28;20127;-67
2023/10/10 14:26:36;;;;;;;14.18;7.97;;;;;;;;;;5008955;28;20117;-70
2023/10/10 14:29:05;;;;;;;16.58;8.38;;;;;;;;;;5009912;28;20022;-67
2023/10/10 14:31:31;;;;;;;18.63;8.70;;;;;;;;;;5008535;28;20010;-67
2023/10/10 14:33:59;;;;;;;16.90;8.32;;;;;;;;;;5010607;28;20109;-64
2023/10/10 14:36:24;;;;;;;;;;;;;;;;;;5005250;28;20025;-66
2023/10/10 14:38:50;;;;;;;19.70;8.10;;;;;;;;;;5010017;28;19905;-67
2023/10/10 14:41:22;;;;;;;15.48;8.10;;;;;;;;;;5007329;28;20032;-67
2023/10/10 14:43:48;;;;;;;18.80;8.45;;;;;;;;;;5008861;28;20045;-63
2023/10/10 14:46:14;;;;;;;19.67;8.88;;;;;;;;;;4989515;28;20030;-64
2023/10/10 14:48:39;;;;;;;14.50;8.45;;;;;;;;;;5004217;28;20052;-65
2023/10/10 14:51:05;;;;;;;14.00;8.18;;;;;;;;;;5008530;28;20022;-67
2023/10/10 14:53:34;;;;;;;17.73;7.88;;;;;;;;;;5008725;28;20071;-67
2023/10/10 14:56:05;;;;;;;15.63;8.23;;;;;;;;;;5007298;28;20612;-66
2023/10/10 14:58:30;;;;;;;14.40;8.05;;;;;;;;;;5007279;28;20026;-65
2023/10/10 15:00:57;;;;;;;16.88;7.45;;;;;;;;;;5006004;28;20149;-64
2023/10/10 15:03:25;;;;;;;13.70;7.20;;;;;;;;;;5005141;28;20037;-68
2023/10/10 15:05:51;;;;;;;19.23;6.72;;;;;;;;;;5007908;28;20014;-66
2023/10/10 15:08:17;;;;;;;15.98;7.65;;;;;;;;;;5009275;28;20036;-66
2023/10/10 15:10:42;;;;;;;14.02;7.45;;;;;;;;;;5010253;28;20669;-66
2023/10/10 15:13:11;;;;;;;19.23;8.07;;;;;;;;;;4999074;28;20009;-68
2023/10/10 15:15:37;;;;;;;18.00;7.90;;;;;;;;;;5001452;28;20621;-66
2023/10/10 15:18:02;;;;;;;13.20;6.50;;;;;;;;;;5005429;28;20029;-68
2023/10/10 15:20:27;;;;;;;15.35;7.03;;;;;;;;;;5005227;28;20048;-68
2023/10/10 15:22:53;;;;;;;13.88;7.53;;;;;;;;;;5006149;28;20030;-65
2023/10/10 15:25:19;;;;;;;18.33;7.35;;;;;;;;;;5007583;28;20464;-64
2023/10/10 15:27:44;;;;;;;13.75;6.80;;;;;;;;;;5011559;28;20025;-66
2023/10/10 15:30:10;;;;;;;13.20;7.07;;;;;;;;;;5012531;28;20014;-67
2023/10/10 15:32:47;;;;;;;20.63;7.70;;;;;;;;;;5009418;28;20265;-66
2023/10/10 15:35:16;;;;;;;19.35;9.35;;;;;;;;;;5011707;28;20071;-65
2023/10/10 15:37:42;;;;;;;17.48;8.02;;;;;;;;;;4997546;28;20014;-65
2023/10/10 15:40:12;;;;;;;16.35;7.85;;;;;;;;;;5001201;28;20022;-65
2023/10/10 15:42:37;;;;;;;16.25;8.75;;;;;;;;;;5016972;28;20574;-66
2023/10/10 15:45:04;;;;;;;13.87;8.20;;;;;;;;;;5008741;28;20100;-63
2023/10/10 15:47:31;;;;;;;21.63;8.50;;;;;;;;;;5008890;28;20291;-65
2023/10/10 15:50:00;;;;;;;18.75;9.65;;;;;;;;;;5008714;28;20022;-67
2023/10/10 15:52:25;;;;;;;15.88;8.18;;;;;;;;;;5007291;28;20021;-67
2023/10/10 15:54:50;;;;;;;21.88;9.77;;;;;;;;;;5007409;28;20022;-66
2023/10/10 15:57:15;;;;;;;18.00;9.60;;;;;;;;;;5007162;28;20026;-65
2023/10/10 15:59:41;;;;;;;21.40;11.17;;;;;;;;;;5007653;28;20026;-63
2023/10/10 16:02:09;;;;;;;18.90;9.38;;;;;;;;;;5008430;28;20254;-68
2023/10/10 16:04:34;;;;;;;29.70;9.38;;;;;;;;;;5003737;28;20106;-67
2023/10/10 16:07:01;;;;;;;18.67;9.23;;;;;;;;;;4996647;28;20017;-67
2023/10/10 16:09:29;;;;;;;18.42;9.05;;;;;;;;;;5004581;28;20029;-66
2023/10/10 16:11:55;;;;;;;15.23;8.73;;;;;;;;;;5008502;28;20026;-66
2023/10/10 16:14:20;;;;;;;16.15;9.38;;;;;;;;;;5011930;28;20030;-66
2023/10/10 16:16:46;;;;;;;26.38;10.45;;;;;;;;;;5014903;28;20488;-67
2023/10/10 16:19:25;;;;;;;20.23;9.35;;;;;;;;;;5010365;28;20018;-67
2023/10/10 16:21:51;;;;;;;22.80;10.85;;;;;;;;;;5012184;28;20444;-67
2023/10/10 16:24:16;;;;;;;17.27;9.40;;;;;;;;;;5011683;28;20025;-66
2023/10/10 16:26:42;;;;;;;22.58;9.15;;;;;;;;;;5006706;28;20033;-66
2023/10/10 16:29:08;;;;;;;16.13;8.60;;;;;;;;;;4993488;28;20025;-67
2023/10/10 16:31:34;;;;;;;14.80;9.05;;;;;;;;;;5010126;28;20053;-67
2023/10/10 16:34:02;;;;;;;18.17;8.95;;;;;;;;;;5010347;28;20033;-67
2023/10/10 16:36:28;;;;;;;14.50;8.82;;;;;;;;;;5007802;28;20029;-66
2023/10/10 16:38:54;;;;;;;16.85;9.48;;;;;;;;;;5012459;28;20021;-66
2023/10/10 16:41:19;;;;;;;19.30;9.98;;;;;;;;;;5011069;28;20022;-66
2023/10/10 16:43:46;;;;;;;23.63;12.13;;;;;;;;;;5017533;28;20029;-67
2023/10/10 16:46:12;;;;;;;22.05;11.10;;;;;;;;;;5003696;28;20097;-67
2023/10/10 16:48:41;;;;;;;20.25;12.43;;;;;;;;;;4998552;28;20301;-65
2023/10/10 16:51:08;;;;;;;;;;;;;;;;;;5010518;28;20014;-67
2023/10/10 16:53:33;;;;;;;20.45;10.98;;;;;;;;;;5008228;28;20409;-64
2023/10/10 16:56:06;;;;;;;18.52;11.57;;;;;;;;;;5013113;28;20469;-66
2023/10/10 16:58:32;;;;;;;18.20;10.82;;;;;;;;;;5009400;28;20101;-64
2023/10/10 17:01:00;;;;;;;24.50;11.50;;;;;;;;;;5015302;28;20123;-65
2023/10/10 17:03:25;;;;;;;20.58;10.73;;;;;;;;;;5010539;28;20484;-68
2023/10/10 17:05:51;;;;;;;23.15;10.27;;;;;;;;;;5008853;28;20026;-67
2023/10/10 17:08:16;;;;;;;22.60;9.77;;;;;;;;;;5011247;28;20037;-65